sensor_id;sensor_type;location;lat;lon;timestamp;pressure;altitude;pressure_sealevel;temperature
65316;BMP280;51920;53.952;10.292;2023-04-07T00:02:17;101443.97;;;5.65
65316;BMP280;51920;53.952;10.292;2023-04-07T00:04:43;101432.31;;;5.61
65316;BMP280;51920;53.952;10.292;2023-04-07T00:07:10;101440.84;;;5.63
65316;BMP280;51920;53.952;10.292;2023-04-07T00:09:36;101427.41;;;5.63
65316;BMP280;51920;53.952;10.292;2023-04-07T00:12:03;101445.00;;;5.52
65316;BMP280;51920;53.952;10.292;2023-04-07T00:14:30;101423.56;;;5.35
65316;BMP280;51920;53.952;10.292;2023-04-07T00:16:56;101444.97;;;5.61
65316;BMP280;51920;53.952;10.292;2023-04-07T00:19:23;101429.88;;;5.39
65316;BMP280;51920;53.952;10.292;2023-04-07T00:21:49;101440.00;;;5.42
65316;BMP280;51920;53.952;10.292;2023-04-07T00:24:16;101426.00;;;5.57
65316;BMP280;51920;53.952;10.292;2023-04-07T00:26:46;101431.63;;;5.43
65316;BMP280;51920;53.952;10.292;2023-04-07T00:29:12;101435.22;;;5.48
65316;BMP280;51920;53.952;10.292;2023-04-07T00:31:39;101418.19;;;5.35
65316;BMP280;51920;53.952;10.292;2023-04-07T00:34:06;101436.53;;;5.33
65316;BMP280;51920;53.952;10.292;2023-04-07T00:36:32;101422.13;;;5.37
65316;BMP280;51920;53.952;10.292;2023-04-07T00:38:59;101436.88;;;5.31
65316;BMP280;51920;53.952;10.292;2023-04-07T00:41:25;101435.91;;;5.18
65316;BMP280;51920;53.952;10.292;2023-04-07T00:43:52;101435.75;;;5.23
65316;BMP280;51920;53.952;10.292;2023-04-07T00:46:21;101446.81;;;5.22
65316;BMP280;51920;53.952;10.292;2023-04-07T00:48:49;101435.09;;;5.35
65316;BMP280;51920;53.952;10.292;2023-04-07T00:51:17;101438.59;;;5.18
65316;BMP280;51920;53.952;10.292;2023-04-07T00:53:45;101451.56;;;5.25
65316;BMP280;51920;53.952;10.292;2023-04-07T00:56:12;101430.75;;;5.13
65316;BMP280;51920;53.952;10.292;2023-04-07T00:58:39;101426.66;;;5.07
65316;BMP280;51920;53.952;10.292;2023-04-07T01:01:16;101443.19;;;5.18
65316;BMP280;51920;53.952;10.292;2023-04-07T01:06:23;101444.47;;;5.20
65316;BMP280;51920;53.952;10.292;2023-04-07T01:09:04;101444.47;;;5.20
65316;BMP280;51920;53.952;10.292;2023-04-07T01:11:38;101444.19;;;5.13
65316;BMP280;51920;53.952;10.292;2023-04-07T01:14:09;101409.19;;;4.75
65316;BMP280;51920;53.952;10.292;2023-04-07T01:16:45;101444.03;;;5.01
65316;BMP280;51920;53.952;10.292;2023-04-07T01:19:35;101438.31;;;5.02
65316;BMP280;51920;53.952;10.292;2023-04-07T01:22:10;101435.34;;;4.95
65316;BMP280;51920;53.952;10.292;2023-04-07T01:30:00;101440.91;;;4.90
65316;BMP280;51920;53.952;10.292;2023-04-07T01:32:28;101445.00;;;4.88
65316;BMP280;51920;53.952;10.292;2023-04-07T01:34:56;101446.91;;;4.87
65316;BMP280;51920;53.952;10.292;2023-04-07T01:37:25;101443.44;;;4.86
65316;BMP280;51920;53.952;10.292;2023-04-07T01:39:52;101445.78;;;4.97
65316;BMP280;51920;53.952;10.292;2023-04-07T01:42:19;101450.53;;;4.82
65316;BMP280;51920;53.952;10.292;2023-04-07T01:44:47;101447.06;;;4.91
65316;BMP280;51920;53.952;10.292;2023-04-07T01:47:14;101451.16;;;4.79
65316;BMP280;51920;53.952;10.292;2023-04-07T01:49:42;101443.09;;;4.88
65316;BMP280;51920;53.952;10.292;2023-04-07T01:52:10;101441.22;;;4.80
65316;BMP280;51920;53.952;10.292;2023-04-07T01:54:37;101445.47;;;4.90
65316;BMP280;51920;53.952;10.292;2023-04-07T01:57:04;101442.78;;;4.81
65316;BMP280;51920;53.952;10.292;2023-04-07T01:59:30;101435.84;;;4.80
65316;BMP280;51920;53.952;10.292;2023-04-07T02:01:59;101446.59;;;4.71
65316;BMP280;51920;53.952;10.292;2023-04-07T02:04:39;101443.59;;;4.81
65316;BMP280;51920;53.952;10.292;2023-04-07T02:07:15;101438.88;;;4.61
65316;BMP280;51920;53.952;10.292;2023-04-07T02:09:48;101453.72;;;4.67
65316;BMP280;51920;53.952;10.292;2023-04-07T02:12:16;101449.75;;;4.56
65316;BMP280;51920;53.952;10.292;2023-04-07T02:14:54;101438.22;;;4.46
65316;BMP280;51920;53.952;10.292;2023-04-07T02:17:23;101430.66;;;4.49
65316;BMP280;51920;53.952;10.292;2023-04-07T02:19:52;101446.13;;;4.52
65316;BMP280;51920;53.952;10.292;2023-04-07T02:22:21;101444.53;;;4.51
65316;BMP280;51920;53.952;10.292;2023-04-07T02:24:47;101455.28;;;4.59
65316;BMP280;51920;53.952;10.292;2023-04-07T02:27:14;101452.44;;;4.56
65316;BMP280;51920;53.952;10.292;2023-04-07T02:29:41;101445.31;;;4.42
65316;BMP280;51920;53.952;10.292;2023-04-07T02:32:07;101446.59;;;4.45
65316;BMP280;51920;53.952;10.292;2023-04-07T02:34:34;101446.09;;;4.43
65316;BMP280;51920;53.952;10.292;2023-04-07T02:37:01;101456.06;;;4.42
65316;BMP280;51920;53.952;10.292;2023-04-07T02:39:28;101452.25;;;4.35
65316;BMP280;51920;53.952;10.292;2023-04-07T02:41:54;101440.59;;;4.39
65316;BMP280;51920;53.952;10.292;2023-04-07T02:44:21;101452.44;;;4.38
65316;BMP280;51920;53.952;10.292;2023-04-07T02:46:47;101451.28;;;4.22
65316;BMP280;51920;53.952;10.292;2023-04-07T02:49:14;101447.19;;;4.33
65316;BMP280;51920;53.952;10.292;2023-04-07T02:51:40;101451.63;;;4.29
65316;BMP280;51920;53.952;10.292;2023-04-07T02:54:07;101454.28;;;4.29
65316;BMP280;51920;53.952;10.292;2023-04-07T02:56:33;101461.44;;;4.34
65316;BMP280;51920;53.952;10.292;2023-04-07T02:59:00;101459.97;;;4.27
65316;BMP280;51920;53.952;10.292;2023-04-07T03:01:28;101462.34;;;4.29
65316;BMP280;51920;53.952;10.292;2023-04-07T03:03:55;101453.97;;;4.22
65316;BMP280;51920;53.952;10.292;2023-04-07T03:06:23;101456.81;;;4.17
65316;BMP280;51920;53.952;10.292;2023-04-07T03:09:01;101461.56;;;4.20
65316;BMP280;51920;53.952;10.292;2023-04-07T03:11:28;101455.25;;;4.16
65316;BMP280;51920;53.952;10.292;2023-04-07T03:13:57;101460.44;;;4.12
65316;BMP280;51920;53.952;10.292;2023-04-07T03:16:25;101466.25;;;4.05
65316;BMP280;51920;53.952;10.292;2023-04-07T03:19:00;101462.25;;;3.85
65316;BMP280;51920;53.952;10.292;2023-04-07T03:21:31;101465.13;;;3.98
65316;BMP280;51920;53.952;10.292;2023-04-07T03:23:57;101451.84;;;3.84
65316;BMP280;51920;53.952;10.292;2023-04-07T03:26:24;101429.72;;;3.70
65316;BMP280;51920;53.952;10.292;2023-04-07T03:28:51;101453.53;;;3.80
65316;BMP280;51920;53.952;10.292;2023-04-07T03:31:18;101449.44;;;3.74
65316;BMP280;51920;53.952;10.292;2023-04-07T03:33:48;101464.13;;;3.85
65316;BMP280;51920;53.952;10.292;2023-04-07T03:36:15;101470.41;;;3.80
65316;BMP280;51920;53.952;10.292;2023-04-07T03:38:46;101473.56;;;3.74
65316;BMP280;51920;53.952;10.292;2023-04-07T03:41:14;101465.59;;;3.60
65316;BMP280;51920;53.952;10.292;2023-04-07T03:43:40;101467.31;;;3.56
65316;BMP280;51920;53.952;10.292;2023-04-07T03:46:08;101464.09;;;3.76
65316;BMP280;51920;53.952;10.292;2023-04-07T03:48:35;101464.72;;;3.73
65316;BMP280;51920;53.952;10.292;2023-04-07T03:51:05;101464.72;;;3.73
65316;BMP280;51920;53.952;10.292;2023-04-07T03:53:33;101470.88;;;3.74
65316;BMP280;51920;53.952;10.292;2023-04-07T03:56:07;101466.88;;;3.62
65316;BMP280;51920;53.952;10.292;2023-04-07T03:58:43;101473.81;;;3.63
65316;BMP280;51920;53.952;10.292;2023-04-07T04:01:15;101472.53;;;3.61
65316;BMP280;51920;53.952;10.292;2023-04-07T04:03:45;101469.84;;;3.52
65316;BMP280;51920;53.952;10.292;2023-04-07T04:06:23;101482.75;;;3.50
65316;BMP280;51920;53.952;10.292;2023-04-07T04:08:52;101471.72;;;3.60
65316;BMP280;51920;53.952;10.292;2023-04-07T04:11:19;101482.25;;;3.57
65316;BMP280;51920;53.952;10.292;2023-04-07T04:13:55;101477.59;;;3.62
65316;BMP280;51920;53.952;10.292;2023-04-07T04:16:22;101481.84;;;3.63
65316;BMP280;51920;53.952;10.292;2023-04-07T04:18:50;101474.41;;;3.60
65316;BMP280;51920;53.952;10.292;2023-04-07T04:21:17;101472.19;;;3.54
65316;BMP280;51920;53.952;10.292;2023-04-07T04:23:45;101491.72;;;3.54
65316;BMP280;51920;53.952;10.292;2023-04-07T04:26:11;101491.72;;;3.54
65316;BMP280;51920;53.952;10.292;2023-04-07T04:28:40;101489.31;;;3.44
65316;BMP280;51920;53.952;10.292;2023-04-07T04:31:07;101486.22;;;3.59
65316;BMP280;51920;53.952;10.292;2023-04-07T04:33:39;101496.91;;;3.51
65316;BMP280;51920;53.952;10.292;2023-04-07T04:36:05;101501.34;;;3.55
65316;BMP280;51920;53.952;10.292;2023-04-07T04:38:32;101503.34;;;3.50
65316;BMP280;51920;53.952;10.292;2023-04-07T04:41:05;101503.44;;;3.36
65316;BMP280;51920;53.952;10.292;2023-04-07T04:43:32;101495.88;;;3.38
65316;BMP280;51920;53.952;10.292;2023-04-07T04:46:00;101500.63;;;3.41
65316;BMP280;51920;53.952;10.292;2023-04-07T04:48:32;101510.84;;;3.39
65316;BMP280;51920;53.952;10.292;2023-04-07T04:50:58;101519.88;;;3.43
65316;BMP280;51920;53.952;10.292;2023-04-07T04:53:25;101504.28;;;3.22
65316;BMP280;51920;53.952;10.292;2023-04-07T04:55:58;101519.00;;;3.34
65316;BMP280;51920;53.952;10.292;2023-04-07T04:58:45;101516.19;;;3.39
65316;BMP280;51920;53.952;10.292;2023-04-07T05:01:19;101516.47;;;3.28
65316;BMP280;51920;53.952;10.292;2023-04-07T05:03:59;101515.66;;;3.28
65316;BMP280;51920;53.952;10.292;2023-04-07T05:06:28;101520.34;;;3.22
65316;BMP280;51920;53.952;10.292;2023-04-07T05:08:59;101522.91;;;3.27
65316;BMP280;51920;53.952;10.292;2023-04-07T05:11:32;101522.47;;;3.34
65316;BMP280;51920;53.952;10.292;2023-04-07T05:13:59;101535.44;;;3.41
65316;BMP280;51920;53.952;10.292;2023-04-07T05:16:27;101526.53;;;3.32
65316;BMP280;51920;53.952;10.292;2023-04-07T05:18:54;101541.34;;;3.29
65316;BMP280;51920;53.952;10.292;2023-04-07T05:21:23;101547.97;;;3.32
65316;BMP280;51920;53.952;10.292;2023-04-07T05:23:52;101558.16;;;3.43
65316;BMP280;51920;53.952;10.292;2023-04-07T05:26:20;101549.72;;;3.50
65316;BMP280;51920;53.952;10.292;2023-04-07T05:28:48;101555.41;;;3.57
65316;BMP280;51920;53.952;10.292;2023-04-07T05:31:18;101546.13;;;3.63
65316;BMP280;51920;53.952;10.292;2023-04-07T05:33:48;101549.00;;;3.67
65316;BMP280;51920;53.952;10.292;2023-04-07T05:36:14;101545.94;;;3.60
65316;BMP280;51920;53.952;10.292;2023-04-07T05:38:41;101548.44;;;3.79
65316;BMP280;51920;53.952;10.292;2023-04-07T05:41:12;101562.66;;;3.88
65316;BMP280;51920;53.952;10.292;2023-04-07T05:43:39;101557.84;;;3.99
65316;BMP280;51920;53.952;10.292;2023-04-07T05:46:05;101558.47;;;4.04
65316;BMP280;51920;53.952;10.292;2023-04-07T05:48:37;101568.13;;;4.05
65316;BMP280;51920;53.952;10.292;2023-04-07T05:51:03;101564.38;;;4.15
65316;BMP280;51920;53.952;10.292;2023-04-07T05:53:30;101575.50;;;4.40
65316;BMP280;51920;53.952;10.292;2023-04-07T05:55:57;101570.16;;;4.49
65316;BMP280;51920;53.952;10.292;2023-04-07T05:58:38;101586.47;;;4.70
65316;BMP280;51920;53.952;10.292;2023-04-07T06:01:05;101588.88;;;4.89
65316;BMP280;51920;53.952;10.292;2023-04-07T06:03:31;101580.81;;;5.15
65316;BMP280;51920;53.952;10.292;2023-04-07T06:06:09;101600.88;;;5.43
65316;BMP280;51920;53.952;10.292;2023-04-07T06:08:36;101604.47;;;5.74
65316;BMP280;51920;53.952;10.292;2023-04-07T06:11:02;101593.56;;;5.79
65316;BMP280;51920;53.952;10.292;2023-04-07T06:13:29;101606.59;;;5.98
65316;BMP280;51920;53.952;10.292;2023-04-07T06:15:56;101603.84;;;6.15
65316;BMP280;51920;53.952;10.292;2023-04-07T06:18:22;101596.44;;;6.03
65316;BMP280;51920;53.952;10.292;2023-04-07T06:20:49;101602.50;;;6.30
65316;BMP280;51920;53.952;10.292;2023-04-07T06:23:17;101616.28;;;6.37
65316;BMP280;51920;53.952;10.292;2023-04-07T06:25:43;101616.34;;;6.50
65316;BMP280;51920;53.952;10.292;2023-04-07T06:28:10;101620.47;;;6.77
65316;BMP280;51920;53.952;10.292;2023-04-07T06:30:37;101616.81;;;6.73
65316;BMP280;51920;53.952;10.292;2023-04-07T06:33:09;101628.78;;;7.05
65316;BMP280;51920;53.952;10.292;2023-04-07T06:35:35;101625.03;;;7.18
65316;BMP280;51920;53.952;10.292;2023-04-07T06:38:02;101639.59;;;7.38
65316;BMP280;51920;53.952;10.292;2023-04-07T06:40:30;101639.97;;;7.37
65316;BMP280;51920;53.952;10.292;2023-04-07T06:42:57;101647.38;;;7.40
65316;BMP280;51920;53.952;10.292;2023-04-07T06:45:50;101656.69;;;7.63
65316;BMP280;51920;53.952;10.292;2023-04-07T06:48:16;101643.34;;;7.46
65316;BMP280;51920;53.952;10.292;2023-04-07T06:50:48;101652.44;;;7.75
65316;BMP280;51920;53.952;10.292;2023-04-07T06:53:14;101643.53;;;7.62
65316;BMP280;51920;53.952;10.292;2023-04-07T06:55:41;101644.22;;;7.71
65316;BMP280;51920;53.952;10.292;2023-04-07T06:58:08;101655.41;;;7.61
65316;BMP280;51920;53.952;10.292;2023-04-07T07:00:35;101645.44;;;7.74
65316;BMP280;51920;53.952;10.292;2023-04-07T07:03:02;101655.47;;;7.98
65316;BMP280;51920;53.952;10.292;2023-04-07T07:05:31;101663.25;;;7.99
65316;BMP280;51920;53.952;10.292;2023-04-07T07:07:57;101663.50;;;8.31
65316;BMP280;51920;53.952;10.292;2023-04-07T07:10:24;101666.19;;;8.56
65316;BMP280;51920;53.952;10.292;2023-04-07T07:12:51;101657.88;;;8.48
65316;BMP280;51920;53.952;10.292;2023-04-07T07:15:17;101673.59;;;8.71
65316;BMP280;51920;53.952;10.292;2023-04-07T07:17:44;101665.38;;;8.67
65316;BMP280;51920;53.952;10.292;2023-04-07T07:20:10;101670.38;;;9.06
65316;BMP280;51920;53.952;10.292;2023-04-07T07:22:37;101674.84;;;9.14
65316;BMP280;51920;53.952;10.292;2023-04-07T07:25:04;101663.38;;;9.05
65316;BMP280;51920;53.952;10.292;2023-04-07T07:27:31;101664.47;;;9.16
65316;BMP280;51920;53.952;10.292;2023-04-07T07:29:57;101667.00;;;8.97
65316;BMP280;51920;53.952;10.292;2023-04-07T07:32:24;101677.53;;;9.14
65316;BMP280;51920;53.952;10.292;2023-04-07T07:34:51;101675.63;;;9.43
65316;BMP280;51920;53.952;10.292;2023-04-07T07:37:17;101676.50;;;9.47
65316;BMP280;51920;53.952;10.292;2023-04-07T07:39:44;101691.03;;;9.26
65316;BMP280;51920;53.952;10.292;2023-04-07T07:42:11;101681.16;;;9.06
65316;BMP280;51920;53.952;10.292;2023-04-07T07:44:37;101674.66;;;9.07
65316;BMP280;51920;53.952;10.292;2023-04-07T07:47:04;101670.25;;;9.30
65316;BMP280;51920;53.952;10.292;2023-04-07T07:49:31;101693.19;;;9.49
65316;BMP280;51920;53.952;10.292;2023-04-07T07:51:57;101674.81;;;9.26
65316;BMP280;51920;53.952;10.292;2023-04-07T07:54:25;101693.19;;;9.49
65316;BMP280;51920;53.952;10.292;2023-04-07T07:56:51;101695.25;;;9.40
65316;BMP280;51920;53.952;10.292;2023-04-07T07:59:18;101677.66;;;9.46
65316;BMP280;51920;53.952;10.292;2023-04-07T08:01:44;101686.41;;;9.71
65316;BMP280;51920;53.952;10.292;2023-04-07T08:04:11;101689.91;;;9.71
65316;BMP280;51920;53.952;10.292;2023-04-07T08:06:38;101711.13;;;10.33
65316;BMP280;51920;53.952;10.292;2023-04-07T08:09:05;101688.56;;;10.13
65316;BMP280;51920;53.952;10.292;2023-04-07T08:11:31;101688.78;;;10.20
65316;BMP280;51920;53.952;10.292;2023-04-07T08:13:58;101697.16;;;10.15
65316;BMP280;51920;53.952;10.292;2023-04-07T08:16:24;101714.03;;;10.08
65316;BMP280;51920;53.952;10.292;2023-04-07T08:18:52;101701.34;;;10.12
65316;BMP280;51920;53.952;10.292;2023-04-07T08:21:18;101725.19;;;9.91
65316;BMP280;51920;53.952;10.292;2023-04-07T08:23:47;101719.31;;;9.73
65316;BMP280;51920;53.952;10.292;2023-04-07T08:26:14;101722.59;;;10.10
65316;BMP280;51920;53.952;10.292;2023-04-07T08:28:41;101697.28;;;10.03
65316;BMP280;51920;53.952;10.292;2023-04-07T08:31:08;101694.91;;;10.01
65316;BMP280;51920;53.952;10.292;2023-04-07T08:33:34;101724.72;;;10.68
65316;BMP280;51920;53.952;10.292;2023-04-07T08:36:01;101728.22;;;10.88
65316;BMP280;51920;53.952;10.292;2023-04-07T08:38:28;101725.38;;;11.01
65316;BMP280;51920;53.952;10.292;2023-04-07T08:41:00;101724.34;;;11.28
65316;BMP280;51920;53.952;10.292;2023-04-07T08:43:29;101723.69;;;10.76
65316;BMP280;51920;53.952;10.292;2023-04-07T08:45:56;101731.69;;;10.69
65316;BMP280;51920;53.952;10.292;2023-04-07T08:48:23;101722.31;;;11.02
65316;BMP280;51920;53.952;10.292;2023-04-07T08:50:52;101724.34;;;10.19
65316;BMP280;51920;53.952;10.292;2023-04-07T08:53:23;101739.38;;;11.03
65316;BMP280;51920;53.952;10.292;2023-04-07T08:55:56;101735.44;;;10.65
65316;BMP280;51920;53.952;10.292;2023-04-07T08:58:24;101733.72;;;10.56
65316;BMP280;51920;53.952;10.292;2023-04-07T09:00:51;101735.91;;;11.64
65316;BMP280;51920;53.952;10.292;2023-04-07T09:03:19;101731.63;;;11.05
65316;BMP280;51920;53.952;10.292;2023-04-07T09:05:47;101738.63;;;11.45
65316;BMP280;51920;53.952;10.292;2023-04-07T09:08:14;101738.63;;;12.10
65316;BMP280;51920;53.952;10.292;2023-04-07T09:10:41;101736.44;;;11.50
65316;BMP280;51920;53.952;10.292;2023-04-07T09:13:08;101737.47;;;11.46
65316;BMP280;51920;53.952;10.292;2023-04-07T09:15:34;101743.97;;;11.60
65316;BMP280;51920;53.952;10.292;2023-04-07T09:18:02;101729.09;;;11.31
65316;BMP280;51920;53.952;10.292;2023-04-07T09:23:39;101741.78;;;11.08
65316;BMP280;51920;53.952;10.292;2023-04-07T09:26:25;101739.94;;;10.41
65316;BMP280;51920;53.952;10.292;2023-04-07T09:31:22;101754.97;;;10.23
65316;BMP280;51920;53.952;10.292;2023-04-07T09:33:51;101741.25;;;10.47
65316;BMP280;51920;53.952;10.292;2023-04-07T09:36:18;101741.03;;;10.21
65316;BMP280;51920;53.952;10.292;2023-04-07T09:38:45;101743.81;;;10.08
65316;BMP280;51920;53.952;10.292;2023-04-07T09:41:14;101734.59;;;9.65
65316;BMP280;51920;53.952;10.292;2023-04-07T09:43:43;101744.91;;;10.39
65316;BMP280;51920;53.952;10.292;2023-04-07T09:48:38;101740.47;;;9.83
65316;BMP280;51920;53.952;10.292;2023-04-07T09:51:10;101737.16;;;10.22
65316;BMP280;51920;53.952;10.292;2023-04-07T09:53:55;101735.63;;;10.21
65316;BMP280;51920;53.952;10.292;2023-04-07T09:56:22;101732.22;;;10.59
65316;BMP280;51920;53.952;10.292;2023-04-07T09:58:49;101735.94;;;10.86
65316;BMP280;51920;53.952;10.292;2023-04-07T10:01:20;101718.03;;;9.55
65316;BMP280;51920;53.952;10.292;2023-04-07T10:03:47;101738.22;;;10.33
65316;BMP280;51920;53.952;10.292;2023-04-07T10:06:16;101727.53;;;10.40
65316;BMP280;51920;53.952;10.292;2023-04-07T10:08:43;101713.25;;;10.08
65316;BMP280;51920;53.952;10.292;2023-04-07T10:11:10;101717.59;;;10.28
65316;BMP280;51920;53.952;10.292;2023-04-07T10:13:39;101722.16;;;10.24
65316;BMP280;51920;53.952;10.292;2023-04-07T10:16:06;101726.13;;;10.14
65316;BMP280;51920;53.952;10.292;2023-04-07T10:18:35;101745.47;;;10.64
65316;BMP280;51920;53.952;10.292;2023-04-07T10:21:06;101734.63;;;10.29
65316;BMP280;51920;53.952;10.292;2023-04-07T10:26:33;101741.13;;;9.64
65316;BMP280;51920;53.952;10.292;2023-04-07T10:29:12;101738.03;;;9.94
65316;BMP280;51920;53.952;10.292;2023-04-07T10:31:41;101740.84;;;9.69
65316;BMP280;51920;53.952;10.292;2023-04-07T10:34:08;101751.38;;;9.87
65316;BMP280;51920;53.952;10.292;2023-04-07T10:36:35;101754.16;;;9.46
65316;BMP280;51920;53.952;10.292;2023-04-07T10:41:35;101748.16;;;9.53
65316;BMP280;51920;53.952;10.292;2023-04-07T10:44:03;101740.03;;;9.53
65316;BMP280;51920;53.952;10.292;2023-04-07T10:49:17;101735.53;;;9.17
65316;BMP280;51920;53.952;10.292;2023-04-07T10:54:39;101734.59;;;8.84
65316;BMP280;51920;53.952;10.292;2023-04-07T10:57:13;101741.09;;;8.96
65316;BMP280;51920;53.952;10.292;2023-04-07T11:02:39;101740.44;;;8.99
65316;BMP280;51920;53.952;10.292;2023-04-07T11:05:06;101736.53;;;9.24
65316;BMP280;51920;53.952;10.292;2023-04-07T11:07:48;101739.00;;;9.29
65316;BMP280;51920;53.952;10.292;2023-04-07T11:10:17;101742.44;;;9.14
65316;BMP280;51920;53.952;10.292;2023-04-07T11:12:58;101746.38;;;8.92
65316;BMP280;51920;53.952;10.292;2023-04-07T11:15:25;101724.03;;;8.67
65316;BMP280;51920;53.952;10.292;2023-04-07T11:18:12;101758.56;;;8.74
65316;BMP280;51920;53.952;10.292;2023-04-07T11:23:14;101744.16;;;8.69
65316;BMP280;51920;53.952;10.292;2023-04-07T11:25:42;101750.44;;;9.10
65316;BMP280;51920;53.952;10.292;2023-04-07T11:28:11;101762.38;;;9.09
65316;BMP280;51920;53.952;10.292;2023-04-07T11:30:44;101746.75;;;8.66
65316;BMP280;51920;53.952;10.292;2023-04-07T11:33:15;101768.84;;;8.80
65316;BMP280;51920;53.952;10.292;2023-04-07T11:35:47;101732.25;;;8.58
65316;BMP280;51920;53.952;10.292;2023-04-07T11:38:14;101755.88;;;8.74
65316;BMP280;51920;53.952;10.292;2023-04-07T11:40:41;101747.09;;;8.77
65316;BMP280;51920;53.952;10.292;2023-04-07T11:43:26;101759.34;;;8.74
65316;BMP280;51920;53.952;10.292;2023-04-07T11:46:13;101758.47;;;8.70
65316;BMP280;51920;53.952;10.292;2023-04-07T11:48:41;101761.59;;;8.84
65316;BMP280;51920;53.952;10.292;2023-04-07T11:51:17;101745.06;;;8.98
65316;BMP280;51920;53.952;10.292;2023-04-07T11:53:44;101752.09;;;9.03
65316;BMP280;51920;53.952;10.292;2023-04-07T11:56:15;101752.47;;;8.89
65316;BMP280;51920;53.952;10.292;2023-04-07T11:58:49;101749.09;;;8.55
65316;BMP280;51920;53.952;10.292;2023-04-07T12:01:16;101753.50;;;8.72
65316;BMP280;51920;53.952;10.292;2023-04-07T12:06:29;101756.75;;;8.53
65316;BMP280;51920;53.952;10.292;2023-04-07T12:08:57;101750.03;;;8.47
65316;BMP280;51920;53.952;10.292;2023-04-07T12:11:23;101755.34;;;8.80
65316;BMP280;51920;53.952;10.292;2023-04-07T12:13:51;101749.88;;;8.93
65316;BMP280;51920;53.952;10.292;2023-04-07T12:16:19;101766.78;;;8.77
65316;BMP280;51920;53.952;10.292;2023-04-07T12:18:46;101762.63;;;8.67
65316;BMP280;51920;53.952;10.292;2023-04-07T12:21:13;101762.28;;;8.81
65316;BMP280;51920;53.952;10.292;2023-04-07T12:23:39;101764.75;;;8.62
65316;BMP280;51920;53.952;10.292;2023-04-07T12:26:07;101759.25;;;8.70
65316;BMP280;51920;53.952;10.292;2023-04-07T12:28:33;101760.38;;;8.45
65316;BMP280;51920;53.952;10.292;2023-04-07T12:31:00;101755.19;;;8.27
65316;BMP280;51920;53.952;10.292;2023-04-07T12:33:28;101763.53;;;8.47
65316;BMP280;51920;53.952;10.292;2023-04-07T12:35:56;101765.44;;;8.34
65316;BMP280;51920;53.952;10.292;2023-04-07T12:38:23;101769.00;;;8.26
65316;BMP280;51920;53.952;10.292;2023-04-07T12:40:50;101763.19;;;8.36
65316;BMP280;51920;53.952;10.292;2023-04-07T12:43:17;101767.25;;;8.67
65316;BMP280;51920;53.952;10.292;2023-04-07T12:45:43;101767.47;;;8.74
65316;BMP280;51920;53.952;10.292;2023-04-07T12:48:10;101761.41;;;8.77
65316;BMP280;51920;53.952;10.292;2023-04-07T12:50:37;101770.28;;;8.90
65316;BMP280;51920;53.952;10.292;2023-04-07T12:53:04;101766.06;;;9.05
65316;BMP280;51920;53.952;10.292;2023-04-07T12:55:31;101768.78;;;8.93
65316;BMP280;51920;53.952;10.292;2023-04-07T12:57:59;101790.75;;;9.03
65316;BMP280;51920;53.952;10.292;2023-04-07T13:00:26;101775.09;;;8.72
65316;BMP280;51920;53.952;10.292;2023-04-07T13:02:53;101779.38;;;8.73
65316;BMP280;51920;53.952;10.292;2023-04-07T13:05:20;101777.59;;;8.53
65316;BMP280;51920;53.952;10.292;2023-04-07T13:07:48;101773.88;;;8.69
65316;BMP280;51920;53.952;10.292;2023-04-07T13:10:16;101785.03;;;8.68
65316;BMP280;51920;53.952;10.292;2023-04-07T13:12:43;101781.53;;;8.67
65316;BMP280;51920;53.952;10.292;2023-04-07T13:15:10;101771.06;;;8.66
65316;BMP280;51920;53.952;10.292;2023-04-07T13:17:37;101777.84;;;8.60
65316;BMP280;51920;53.952;10.292;2023-04-07T13:20:04;101786.91;;;8.55
65316;BMP280;51920;53.952;10.292;2023-04-07T13:22:32;101778.13;;;8.46
65316;BMP280;51920;53.952;10.292;2023-04-07T13:25:01;101782.09;;;8.48
65316;BMP280;51920;53.952;10.292;2023-04-07T13:27:28;101782.53;;;8.38
65316;BMP280;51920;53.952;10.292;2023-04-07T13:29:55;101775.09;;;8.47
65316;BMP280;51920;53.952;10.292;2023-04-07T13:32:21;101782.53;;;8.63
65316;BMP280;51920;53.952;10.292;2023-04-07T13:34:48;101779.97;;;8.66
65316;BMP280;51920;53.952;10.292;2023-04-07T13:37:15;101779.41;;;8.61
65316;BMP280;51920;53.952;10.292;2023-04-07T13:39:42;101779.03;;;8.50
65316;BMP280;51920;53.952;10.292;2023-04-07T13:42:09;101776.34;;;8.38
65316;BMP280;51920;53.952;10.292;2023-04-07T13:44:37;101786.09;;;8.30
65316;BMP280;51920;53.952;10.292;2023-04-07T13:47:05;101787.03;;;8.01
65316;BMP280;51920;53.952;10.292;2023-04-07T13:49:32;101780.94;;;7.92
65316;BMP280;51920;53.952;10.292;2023-04-07T13:51:59;101787.66;;;7.64
65316;BMP280;51920;53.952;10.292;2023-04-07T13:54:26;101778.03;;;7.63
65316;BMP280;51920;53.952;10.292;2023-04-07T13:56:53;101800.03;;;7.65
65316;BMP280;51920;53.952;10.292;2023-04-07T13:59:20;101790.41;;;7.77
65316;BMP280;51920;53.952;10.292;2023-04-07T14:01:46;101784.63;;;7.87
65316;BMP280;51920;53.952;10.292;2023-04-07T14:04:13;101777.75;;;7.89
65316;BMP280;51920;53.952;10.292;2023-04-07T14:06:41;101788.25;;;7.70
65316;BMP280;51920;53.952;10.292;2023-04-07T14:09:09;101795.16;;;7.59
65316;BMP280;51920;53.952;10.292;2023-04-07T14:11:35;101788.69;;;7.60
65316;BMP280;51920;53.952;10.292;2023-04-07T14:14:02;101787.28;;;7.75
65316;BMP280;51920;53.952;10.292;2023-04-07T14:16:29;101780.91;;;7.58
65316;BMP280;51920;53.952;10.292;2023-04-07T14:18:55;101778.75;;;7.52
65316;BMP280;51920;53.952;10.292;2023-04-07T14:21:22;101785.78;;;7.44
65316;BMP280;51920;53.952;10.292;2023-04-07T14:23:49;101781.22;;;7.36
65316;BMP280;51920;53.952;10.292;2023-04-07T14:26:17;101774.50;;;7.42
65316;BMP280;51920;53.952;10.292;2023-04-07T14:28:44;101782.59;;;7.42
65316;BMP280;51920;53.952;10.292;2023-04-07T14:31:14;101780.38;;;7.44
65316;BMP280;51920;53.952;10.292;2023-04-07T14:33:42;101772.28;;;7.44
65316;BMP280;51920;53.952;10.292;2023-04-07T14:36:10;101766.38;;;7.30
65316;BMP280;51920;53.952;10.292;2023-04-07T14:38:36;101765.06;;;7.36